Huvudsida
METAR-TAF:

METAR-TAF

Flygplatser :

Ørlands, Norge

latitud: 63-42N, longitud: 009-36E, höjd: 0 m

Aktuellt väderrapport

Denna rapport gjordes för 1 timme och 2 minuter sedan, klockan 22:50 UTC
Vind 7 kt från ost
Temperatur 1°C
Fuktighet 93%
Tryck 1007 hPa
Sikt 10 km eller mer
Få moln på en höjd av 1500 ft

METAR: ENOL 132250Z 08007KT 9999 FEW015 01/00 Q1007

Tid: 01:52 (23:52 UTC)

Väderprognos

Prognos gäller från 13 kl. 18 UTC till 14 kl. 18 UTC
Vind 9 kt från ost
Sikt 10 km eller mer
Få moln på en höjd av 1500 ft
Sannolikhet 30% :
Temporärt
från 14 kl. 00 UTC till 14 kl. 06 UTC
Sikt: 2000 m
Mulet på en höjd av 400 ft
fuktdis

TAF: ENOL 1318/1418 10009KT 9999 FEW015 PROB30 TEMPO 1400/1406 2000 BR OVC004

Aktuella väderrapporter och prognoser från 4000 flygplatser (METAR- och TAF-rapporter).

De tillgängliga stationerna syns som gula och röda prickar på kartan.

För musen över prickarna för att se namnen på stationerna.

Klicka sedan för att få väderrapporter och prognoser.

För att ändra kartan: Klicka på de gröna knapparna med ett svart kors på för att zooma in; den gröna knappen med ett streck på för att zooma ut; eller på de gröna pilarna för angränsande kartor.


METAR-TAF: